Time;durP1;ratioP1;P1;durP2;ratioP2;P2;SDS_P1;SDS_P2;PMS_P1;PMS_P2;Temp;Humidity;BMP_temperature;BMP_pressure;BME280_temperature;BME280_humidity;BME280_pressure;Samples;Min_cycle;Max_cycle;Signal;HPM_P1;HPM_P2
2022/01/02 00:00:53;;;;;;;3.95;1.90;;;;;;;-4.31;70.02;98511.28;5051519;28;20052;-58
2022/01/02 00:03:41;;;;;;;3.65;1.77;;;;;;;-4.26;69.32;98524.06;5045432;28;20056;-58
2022/01/02 00:06:31;;;;;;;4.18;1.60;;;;;;;-4.27;69.03;98511.56;5051461;28;20597;-60
2022/01/02 00:09:22;;;;;;;2.97;1.50;;;;;;;-4.34;69.60;98516.41;5051579;28;20075;-59
2022/01/02 00:12:13;;;;;;;3.53;1.65;;;;;;;-4.43;69.43;98498.97;5055293;28;20051;-59
2022/01/02 00:15:01;;;;;;;2.80;1.65;;;;;;;-4.60;69.29;98528.16;5053560;28;20138;-60
2022/01/02 00:17:51;;;;;;;1.40;0.88;;;;;;;-4.83;68.38;98517.69;5054182;28;20546;-61
2022/01/02 00:20:45;;;;;;;1.70;1.02;;;;;;;-4.95;68.47;98525.19;5054868;28;20142;-59
2022/01/02 00:23:40;;;;;;;4.38;1.30;;;;;;;-4.93;67.53;98529.25;5054477;28;20052;-59
2022/01/02 00:26:36;;;;;;;2.30;1.08;;;;;;;-4.89;66.89;98532.28;5054234;28;20533;-62
2022/01/02 00:29:22;;;;;;;10.65;2.80;;;;;;;-4.77;66.78;98525.59;5055103;28;20056;-61
2022/01/02 00:32:11;;;;;;;5.55;1.55;;;;;;;-4.76;66.77;98534.56;5048928;28;20423;-62
2022/01/02 00:34:59;;;;;;;2.78;1.67;;;;;;;-4.72;67.16;98535.66;5053050;28;20142;-62
2022/01/02 00:37:45;;;;;;;1.40;0.93;;;;;;;-4.79;67.84;98535.06;5054375;28;20052;-61
2022/01/02 00:40:34;;;;;;;1.30;1.08;;;;;;;-4.78;67.69;98542.13;5055351;28;20048;-61
2022/01/02 00:43:40;;;;;;;2.90;1.33;;;;;;;-4.78;68.25;98547.53;5052608;28;20056;-62
2022/01/02 00:46:29;;;;;;;3.70;1.40;;;;;;;-4.98;69.39;98560.94;5054581;28;20134;-62
2022/01/02 00:49:17;;;;;;;2.63;1.35;;;;;;;-5.01;70.03;98558.75;5055052;28;20063;-61
2022/01/02 00:52:08;;;;;;;2.80;1.70;;;;;;;-5.06;70.71;98566.81;5054477;28;20179;-61
2022/01/02 00:54:55;;;;;;;2.10;1.45;;;;;;;-5.10;71.17;98565.72;5053907;28;20134;-61
2022/01/02 00:57:42;;;;;;;3.63;1.70;;;;;;;-5.15;71.54;98552.09;5054172;28;20203;-61
2022/01/02 01:00:30;;;;;;;3.70;1.75;;;;;;;-5.14;71.70;98556.44;5054375;28;20203;-61
2022/01/02 01:03:26;;;;;;;3.33;1.77;;;;;;;-5.22;71.89;98557.72;5054367;28;20055;-62
2022/01/02 01:06:13;;;;;;;2.97;1.40;;;;;;;-5.17;72.50;98565.06;5053796;28;20122;-61
2022/01/02 01:09:04;;;;;;;1.52;1.23;;;;;;;-5.22;72.01;98570.44;5054047;28;20535;-60
2022/01/02 01:11:50;;;;;;;3.40;1.80;;;;;;;-5.33;72.67;98566.00;5052664;28;20397;-62
2022/01/02 01:14:35;;;;;;;3.55;1.95;;;;;;;-5.44;72.46;98584.03;5054330;28;20163;-62
2022/01/02 01:17:21;;;;;;;4.10;1.83;;;;;;;-5.39;72.49;98564.31;5053712;28;20048;-61
2022/01/02 01:20:09;;;;;;;4.10;1.98;;;;;;;-5.39;72.10;98578.66;5052229;28;20160;-61
2022/01/02 01:22:54;;;;;;;3.97;2.17;;;;;;;-5.42;71.52;98578.38;5053450;28;20048;-62
2022/01/02 01:25:44;;;;;;;5.55;2.03;;;;;;;-5.46;71.73;98579.94;5053688;28;20436;-61
2022/01/02 01:28:29;;;;;;;2.83;1.48;;;;;;;-5.54;71.19;98591.22;5052135;28;20052;-60
2022/01/02 01:31:15;;;;;;;2.80;1.70;;;;;;;-5.56;71.56;98596.06;5053690;28;20412;-62
2022/01/02 01:34:01;;;;;;;1.50;1.40;;;;;;;-5.59;71.12;98591.16;5053982;28;20554;-62
2022/01/02 01:36:46;;;;;;;2.78;1.67;;;;;;;-5.65;71.18;98599.22;5052042;28;20087;-62
2022/01/02 01:39:32;;;;;;;7.63;1.90;;;;;;;-5.70;71.73;98596.47;5053629;28;20546;-62
2022/01/02 01:42:27;;;;;;;12.35;4.20;;;;;;;-5.71;72.30;98608.34;5054042;28;20052;-62
2022/01/02 01:48:05;;;;;;;1.55;0.80;;;;;;;-5.59;72.95;98599.28;5052897;28;20158;-61
2022/01/02 01:50:51;;;;;;;5.07;1.23;;;;;;;-5.59;72.87;98610.94;5052569;28;20514;-61
2022/01/02 01:53:36;;;;;;;4.10;2.17;;;;;;;-5.55;73.23;98603.13;5052728;28;20059;-61
2022/01/02 01:56:22;;;;;;;2.65;1.60;;;;;;;-5.56;73.16;98593.38;5052731;28;20064;-61
2022/01/02 01:59:07;;;;;;;4.05;1.52;;;;;;;-5.54;73.06;98613.69;5053608;28;20171;-61
2022/01/02 02:01:53;;;;;;;2.47;1.65;;;;;;;-5.60;72.81;98605.78;5051468;28;20187;-61
2022/01/02 02:04:39;;;;;;;3.85;2.25;;;;;;;-5.56;73.15;98610.44;5052755;28;20052;-62
2022/01/02 02:07:28;;;;;;;4.25;1.90;;;;;;;-5.49;72.57;98604.81;5053508;28;20055;-60
2022/01/02 02:10:25;;;;;;;1.30;0.98;;;;;;;-5.51;72.59;98606.97;5051685;28;20138;-58
2022/01/02 02:13:11;;;;;;;5.43;2.05;;;;;;;-5.52;72.57;98611.56;5053744;28;20059;-59
2022/01/02 02:15:57;;;;;;;2.65;1.83;;;;;;;-5.46;72.28;98621.41;5052704;28;20527;-60
2022/01/02 02:18:42;;;;;;;4.38;1.67;;;;;;;-5.48;71.92;98630.84;5053388;28;20462;-58
2022/01/02 02:21:31;;;;;;;3.63;1.77;;;;;;;-5.51;72.42;98623.22;5051705;28;20056;-60
2022/01/02 02:24:16;;;;;;;3.72;2.10;;;;;;;-5.50;72.42;98622.16;5052604;28;20060;-60
2022/01/02 02:27:02;;;;;;;1.65;1.15;;;;;;;-5.48;72.14;98637.06;5051879;28;20114;-56
2022/01/02 02:29:48;;;;;;;3.30;1.35;;;;;;;-5.50;72.25;98635.69;5052571;28;20056;-59
2022/01/02 02:32:33;;;;;;;2.85;1.63;;;;;;;-5.60;72.44;98625.53;5051396;28;20416;-58
2022/01/02 02:35:18;;;;;;;1.67;1.10;;;;;;;-5.53;72.42;98631.59;5050390;28;20056;-58
2022/01/02 02:38:07;;;;;;;4.78;2.05;;;;;;;-5.52;72.32;98638.66;5052313;28;20055;-59
2022/01/02 02:40:53;;;;;;;2.78;1.88;;;;;;;-5.47;72.21;98640.59;5052425;28;20419;-57
2022/01/02 02:44:00;;;;;;;3.88;2.58;;;;;;;-5.42;72.32;98637.97;5050761;28;20419;-59
2022/01/02 02:49:50;;;;;;;2.63;1.63;;;;;;;-5.45;71.86;98654.72;5052346;28;20067;-58
2022/01/02 02:52:44;;;;;;;3.17;1.70;;;;;;;-5.49;72.15;98656.28;5051739;28;20056;-59
2022/01/02 02:55:32;;;;;;;4.57;2.40;;;;;;;-5.50;72.16;98654.66;5051378;28;20545;-58
2022/01/02 03:01:22;;;;;;;1.60;1.38;;;;;;;-5.52;72.67;98675.75;5051869;28;20535;-59
2022/01/02 03:04:07;;;;;;;4.15;2.10;;;;;;;-5.57;72.45;98681.13;5052687;28;20060;-61
2022/01/02 03:06:54;;;;;;;4.57;1.67;;;;;;;-5.56;72.79;98680.03;5052213;28;20052;-62
2022/01/02 03:09:41;;;;;;;2.55;1.48;;;;;;;-5.59;72.41;98686.78;5051718;28;20542;-62
2022/01/02 03:12:26;;;;;;;2.47;1.83;;;;;;;-5.56;73.01;98688.16;5052035;28;20056;-62
2022/01/02 03:15:11;;;;;;;1.40;1.13;;;;;;;-5.57;72.64;98695.47;5052580;28;20067;-57
2022/01/02 03:17:57;;;;;;;4.35;1.80;;;;;;;-5.65;72.79;98712.16;5051300;28;20044;-57
2022/01/02 03:20:43;;;;;;;2.50;1.65;;;;;;;-5.68;73.02;98716.16;5052242;28;20052;-60
2022/01/02 03:23:29;;;;;;;4.03;1.77;;;;;;;-5.68;72.94;98716.16;5051809;28;20044;-60
2022/01/02 03:26:15;;;;;;;3.58;1.80;;;;;;;-5.65;73.00;98710.25;5050949;28;20149;-61
2022/01/02 03:29:01;;;;;;;6.25;2.28;;;;;;;-5.69;73.09;98719.97;5051807;28;20048;-61
2022/01/02 03:31:47;;;;;;;2.60;1.40;;;;;;;-5.71;73.57;98719.38;5052079;28;20234;-62
2022/01/02 03:34:33;;;;;;;4.70;1.63;;;;;;;-5.76;73.24;98732.88;5051331;28;20103;-60
2022/01/02 03:37:19;;;;;;;6.63;1.98;;;;;;;-5.77;73.62;98717.66;5051796;28;20123;-59
2022/01/02 03:40:07;;;;;;;2.83;1.63;;;;;;;-5.77;73.62;98739.31;5051671;28;20052;-58
2022/01/02 03:42:53;;;;;;;3.58;1.70;;;;;;;-5.74;73.58;98733.41;5051600;28;20051;-58
2022/01/02 03:45:39;;;;;;;2.55;1.58;;;;;;;-5.75;73.31;98742.63;5056014;28;20462;-60
2022/01/02 03:48:24;;;;;;;1.20;1.00;;;;;;;-5.86;73.35;98746.25;5056028;28;20052;-58
2022/01/02 03:51:09;;;;;;;3.63;1.88;;;;;;;-5.88;73.49;98743.00;5054982;28;20142;-59
2022/01/02 03:53:55;;;;;;;2.75;1.45;;;;;;;-5.87;73.09;98731.09;5054861;28;20059;-59
2022/01/02 03:56:41;;;;;;;6.70;1.48;;;;;;;-5.90;73.24;98737.00;5055204;28;20048;-58
2022/01/02 03:59:27;;;;;;;1.73;1.38;;;;;;;-5.95;73.06;98746.94;5055935;28;20076;-58
2022/01/02 04:02:12;;;;;;;2.35;1.55;;;;;;;-5.99;73.15;98743.06;5053882;28;20060;-59
2022/01/02 04:04:58;;;;;;;2.95;1.85;;;;;;;-6.06;73.24;98740.53;5054994;28;20198;-58
2022/01/02 04:07:44;;;;;;;3.05;1.67;;;;;;;-6.15;73.26;98735.78;5055132;28;20195;-59
2022/01/02 04:10:30;;;;;;;7.90;1.80;;;;;;;-6.22;72.97;98738.63;5053268;28;20419;-57
2022/01/02 04:13:15;;;;;;;3.40;1.60;;;;;;;-6.29;72.85;98751.50;5055394;28;20048;-61
2022/01/02 04:16:01;;;;;;;3.40;1.40;;;;;;;-6.30;73.36;98747.16;5055462;28;20469;-62
2022/01/02 04:18:46;;;;;;;1.77;1.13;;;;;;;-6.34;72.81;98756.81;5053321;28;20526;-62
2022/01/02 04:21:32;;;;;;;1.88;1.30;;;;;;;-6.35;73.09;98741.66;5054591;28;20056;-63
2022/01/02 04:24:18;;;;;;;2.15;1.35;;;;;;;-6.34;72.94;98759.53;5055453;28;20191;-61
2022/01/02 04:27:03;;;;;;;2.88;1.45;;;;;;;-6.33;72.36;98769.31;5055312;28;20060;-61
2022/01/02 04:29:50;;;;;;;2.00;1.35;;;;;;;-6.31;72.76;98785.28;5054920;28;20055;-62
2022/01/02 04:32:35;;;;;;;4.25;1.58;;;;;;;-6.32;72.04;98781.75;5054876;28;20658;-63
2022/01/02 04:35:21;;;;;;;2.72;1.40;;;;;;;-6.33;72.45;98782.84;5055227;28;20134;-62
2022/01/02 04:38:08;;;;;;;2.10;1.20;;;;;;;-6.35;71.52;98782.25;5054664;28;20514;-62
2022/01/02 04:40:54;;;;;;;1.52;1.08;;;;;;;-6.41;72.20;98780.50;5054847;28;20056;-61
2022/01/02 04:43:40;;;;;;;3.45;1.70;;;;;;;-6.39;72.71;98783.81;5054126;28;20404;-61
2022/01/02 04:46:25;;;;;;;5.45;1.65;;;;;;;-6.33;72.04;98772.00;5054573;28;20169;-62
2022/01/02 04:49:11;;;;;;;2.78;1.48;;;;;;;-6.30;72.38;98763.41;5055229;28;20184;-61
2022/01/02 04:51:56;;;;;;;8.32;1.58;;;;;;;-6.31;71.78;98779.88;5054423;28;20055;-62
2022/01/02 04:54:42;;;;;;;8.85;2.30;;;;;;;-6.28;72.64;98779.41;5053954;28;20055;-62
2022/01/02 04:57:28;;;;;;;2.78;1.73;;;;;;;-6.25;72.05;98778.91;5053204;28;20052;-62
2022/01/02 05:00:14;;;;;;;6.00;2.00;;;;;;;-6.28;71.92;98774.78;5054541;28;20052;-61
2022/01/02 05:03:00;;;;;;;3.83;1.80;;;;;;;-6.28;71.94;98763.97;5054064;28;20141;-62
2022/01/02 05:05:45;;;;;;;1.10;0.80;;;;;;;-6.35;71.71;98757.91;5052175;28;20056;-61
2022/01/02 05:08:31;;;;;;;1.90;1.15;;;;;;;-6.43;71.68;98777.22;5053991;28;20060;-61
2022/01/02 05:11:17;;;;;;;4.20;1.65;;;;;;;-6.43;71.69;98779.91;5054403;28;20179;-62
2022/01/02 05:14:03;;;;;;;1.70;1.10;;;;;;;-6.39;72.06;98778.41;5053125;28;20475;-61
2022/01/02 05:16:49;;;;;;;2.22;1.63;;;;;;;-6.42;70.88;98778.88;5053941;28;20048;-63
2022/01/02 05:19:35;;;;;;;1.73;1.20;;;;;;;-6.46;71.14;98799.34;5054121;28;20142;-62
2022/01/02 05:22:21;;;;;;;3.47;1.77;;;;;;;-6.42;71.15;98795.09;5052144;28;20059;-62
2022/01/02 05:25:07;;;;;;;1.85;1.38;;;;;;;-6.31;71.04;98793.41;5054071;28;20056;-63
2022/01/02 05:27:52;;;;;;;3.45;1.70;;;;;;;-6.30;71.67;98787.75;5053958;28;20211;-63
2022/01/02 05:30:41;;;;;;;2.53;1.40;;;;;;;-6.24;71.10;98791.38;5050641;28;20507;-60
2022/01/02 05:33:26;;;;;;;4.45;1.58;;;;;;;-6.32;70.03;98816.94;5053118;28;20048;-58
2022/01/02 05:36:11;;;;;;;1.25;1.10;;;;;;;-6.46;69.94;98803.91;5054151;28;20075;-60
2022/01/02 05:38:57;;;;;;;2.75;1.23;;;;;;;-6.52;69.52;98813.84;5053967;28;20138;-59
2022/01/02 05:41:44;;;;;;;1.88;1.02;;;;;;;-6.56;69.28;98820.78;5053719;28;20111;-60
2022/01/02 05:44:30;;;;;;;3.30;1.60;;;;;;;-6.57;69.56;98826.44;5054203;28;20048;-60
2022/01/02 05:47:16;;;;;;;1.38;1.15;;;;;;;-6.51;69.70;98837.09;5053477;28;20067;-62
2022/01/02 05:50:01;;;;;;;6.05;1.52;;;;;;;-6.53;68.85;98846.53;5053315;28;20103;-62
2022/01/02 05:52:47;;;;;;;3.00;1.20;;;;;;;-6.50;68.58;98856.88;5053303;28;20044;-63
2022/01/02 05:55:32;;;;;;;2.78;1.25;;;;;;;-6.50;68.23;98868.53;5054110;28;20098;-61
2022/01/02 05:58:18;;;;;;;2.88;1.42;;;;;;;-6.44;68.25;98866.72;5052906;28;20060;-61
2022/01/02 06:01:04;;;;;;;2.10;1.13;;;;;;;-6.47;68.40;98856.38;5052667;28;20051;-61
2022/01/02 06:03:49;;;;;;;2.53;1.42;;;;;;;-6.46;68.58;98858.84;5053592;28;20190;-61
2022/01/02 06:06:35;;;;;;;2.55;1.23;;;;;;;-6.52;68.43;98854.41;5052225;28;20479;-62
2022/01/02 06:09:20;;;;;;;2.15;1.15;;;;;;;-6.53;67.96;98863.59;5053398;28;20110;-61
2022/01/02 06:12:06;;;;;;;2.97;1.30;;;;;;;-6.55;68.66;98879.22;5052669;28;20063;-61
2022/01/02 06:14:51;;;;;;;0.85;0.80;;;;;;;-6.50;67.87;98879.34;5053034;28;20047;-59
2022/01/02 06:17:37;;;;;;;2.08;1.40;;;;;;;-6.73;68.31;98863.16;5051861;28;20055;-59
2022/01/02 06:20:22;;;;;;;1.58;0.98;;;;;;;-6.81;69.23;98877.03;5052291;28;20055;-59
2022/01/02 06:23:08;;;;;;;4.15;1.90;;;;;;;-6.77;69.40;98878.22;5052906;28;20048;-59
2022/01/02 06:25:53;;;;;;;2.25;1.17;;;;;;;-6.77;69.22;98870.13;5050999;28;20443;-59
2022/01/02 06:28:39;;;;;;;2.30;1.10;;;;;;;-6.85;68.33;98865.06;5052562;28;20051;-59
2022/01/02 06:31:24;;;;;;;2.63;1.58;;;;;;;-6.81;68.26;98881.66;5053157;28;20127;-58
2022/01/02 06:34:10;;;;;;;0.93;0.77;;;;;;;-6.82;68.01;98880.81;5049986;28;20099;-60
2022/01/02 06:36:55;;;;;;;3.17;1.88;;;;;;;-6.77;68.84;98882.81;5052491;28;20051;-60
2022/01/02 06:39:41;;;;;;;2.83;1.40;;;;;;;-6.74;68.22;98888.56;5052998;28;20056;-60
2022/01/02 06:42:27;;;;;;;1.25;0.70;;;;;;;-6.70;67.76;98884.31;5052747;28;20127;-59
2022/01/02 06:45:12;;;;;;;1.42;1.10;;;;;;;-6.78;68.92;98891.97;5052209;28;20055;-59
2022/01/02 06:47:59;;;;;;;1.92;1.13;;;;;;;-6.82;69.25;98886.22;5052231;28;20415;-59
2022/01/02 06:50:45;;;;;;;6.95;0.93;;;;;;;-6.76;69.29;98879.03;5052669;28;20048;-57
2022/01/02 06:53:30;;;;;;;4.93;1.20;;;;;;;-6.81;69.60;98881.66;5052347;28;20519;-60
2022/01/02 06:56:16;;;;;;;3.00;1.63;;;;;;;-6.77;69.59;98894.44;5044145;28;20162;-58
2022/01/02 06:59:02;;;;;;;2.40;1.40;;;;;;;-6.67;70.26;98886.53;5052518;28;20056;-58
2022/01/02 07:01:47;;;;;;;1.63;1.00;;;;;;;-6.65;70.31;98889.84;5052098;28;20059;-59
2022/01/02 07:04:33;;;;;;;3.83;1.33;;;;;;;-6.57;70.07;98904.88;5052155;28;20194;-57
2022/01/02 07:07:18;;;;;;;2.67;1.50;;;;;;;-6.43;69.77;98896.25;5052114;28;20163;-59
2022/01/02 07:10:03;;;;;;;3.40;1.58;;;;;;;-6.43;69.60;98888.13;5051849;28;20118;-59
2022/01/02 07:12:50;;;;;;;3.65;1.50;;;;;;;-6.41;69.78;98890.59;5051035;28;20056;-59
2022/01/02 07:15:35;;;;;;;2.13;1.20;;;;;;;-6.43;69.39;98898.94;5051634;28;20072;-60
2022/01/02 07:18:21;;;;;;;1.55;0.95;;;;;;;-6.50;70.09;98911.78;5050833;28;20052;-60
2022/01/02 07:21:06;;;;;;;3.42;1.40;;;;;;;-6.52;69.50;98921.19;5050846;28;20072;-56
2022/01/02 07:23:54;;;;;;;1.63;0.82;;;;;;;-6.51;70.19;98914.75;5051521;28;20095;-61
2022/01/02 07:26:40;;;;;;;3.38;1.77;;;;;;;-6.57;69.51;98908.38;5046778;28;20056;-60
2022/01/02 07:29:27;;;;;;;2.40;1.55;;;;;;;-6.59;69.26;98910.53;5049545;28;20065;-59
2022/01/02 07:32:13;;;;;;;3.67;1.45;;;;;;;-6.66;68.86;98912.50;5051515;28;20170;-59
2022/01/02 07:34:59;;;;;;;44.85;14.93;;;;;;;-6.52;69.43;98918.47;5046725;28;20519;-59
2022/01/02 07:37:45;;;;;;;3.03;1.60;;;;;;;-6.52;69.17;98919.31;5049371;28;20071;-57
2022/01/02 07:40:30;;;;;;;1.65;1.27;;;;;;;-6.56;69.89;98920.88;5051851;28;20059;-59
2022/01/02 07:43:16;;;;;;;3.92;1.52;;;;;;;-6.58;69.37;98916.72;5052004;28;20601;-61
2022/01/02 07:46:01;;;;;;;3.55;1.30;;;;;;;-6.52;69.31;98919.31;5047683;28;20459;-60
2022/01/02 07:48:47;;;;;;;2.15;1.20;;;;;;;-6.50;69.58;98933.44;5051800;28;20201;-60
2022/01/02 07:51:32;;;;;;;2.38;1.25;;;;;;;-6.45;69.35;98946.25;5052364;28;20099;-61
2022/01/02 07:54:18;;;;;;;6.45;1.25;;;;;;;-6.52;68.83;98940.94;5051759;28;20135;-60
2022/01/02 07:57:05;;;;;;;2.80;1.38;;;;;;;-6.50;68.49;98938.84;5051470;28;20063;-59
2022/01/02 07:59:51;;;;;;;2.60;1.13;;;;;;;-6.44;68.72;98946.00;5051636;28;20497;-60
2022/01/02 08:02:52;;;;;;;2.80;1.33;;;;;;;-6.34;68.50;98942.69;5050361;28;20060;-61
2022/01/02 08:05:38;;;;;;;2.75;1.20;;;;;;;-6.34;68.09;98932.69;5051786;28;20052;-61
2022/01/02 08:08:23;;;;;;;3.03;1.45;;;;;;;-6.36;67.93;98940.22;5051138;28;20059;-62
2022/01/02 08:11:08;;;;;;;3.80;1.27;;;;;;;-6.33;67.77;98942.47;5049857;28;20056;-60
2022/01/02 08:13:54;;;;;;;2.38;1.60;;;;;;;-6.21;67.47;98940.53;5050712;28;20103;-56
2022/01/02 08:16:39;;;;;;;2.72;1.38;;;;;;;-6.27;66.83;98954.19;5050674;28;20071;-59
2022/01/02 08:19:24;;;;;;;3.97;1.67;;;;;;;-6.24;66.78;98970.78;5048650;28;20056;-54
2022/01/02 08:22:11;;;;;;;2.72;1.30;;;;;;;-6.26;67.41;98963.94;5051272;28;20536;-55
2022/01/02 08:24:56;;;;;;;4.80;2.00;;;;;;;-6.22;66.95;98968.66;5051741;28;20052;-59
2022/01/02 08:27:42;;;;;;;3.13;1.30;;;;;;;-6.15;67.22;98963.94;5051293;28;20060;-59
2022/01/02 08:30:27;;;;;;;3.95;1.40;;;;;;;-6.19;67.04;98973.56;5051930;28;20211;-61
2022/01/02 08:33:16;;;;;;;7.32;2.03;;;;;;;-6.15;67.38;98972.06;5055308;28;20044;-60
2022/01/02 08:36:02;;;;;;;2.92;1.30;;;;;;;-6.16;66.94;98967.69;5054311;28;20138;-57
2022/01/02 08:38:48;;;;;;;3.67;1.45;;;;;;;-6.09;67.10;98979.22;5054920;28;20060;-60
2022/01/02 08:41:33;;;;;;;1.67;1.05;;;;;;;-6.10;66.55;98980.25;5054976;28;20060;-61
2022/01/02 08:44:20;;;;;;;3.40;1.92;;;;;;;-5.97;66.58;98977.28;5055028;28;20555;-62
2022/01/02 08:47:06;;;;;;;2.72;1.27;;;;;;;-6.08;66.92;98980.84;5054243;28;20107;-57
2022/01/02 08:49:52;;;;;;;1.95;1.40;;;;;;;-6.16;67.48;98980.41;5055402;28;20427;-59
2022/01/02 08:52:37;;;;;;;2.20;1.50;;;;;;;-6.14;66.75;98976.41;5054629;28;20111;-59
2022/01/02 08:55:23;;;;;;;2.63;1.55;;;;;;;-5.98;67.00;98975.63;5054248;28;20455;-58
2022/01/02 08:58:08;;;;;;;5.03;1.80;;;;;;;-5.94;66.67;98965.16;5054390;28;20569;-59
2022/01/02 09:00:54;;;;;;;1.77;1.08;;;;;;;-6.00;66.91;98966.94;5053985;28;20110;-60
2022/01/02 09:03:39;;;;;;;5.85;1.75;;;;;;;-6.03;67.27;98972.00;5054725;28;20190;-59
2022/01/02 09:06:25;;;;;;;3.42;1.48;;;;;;;-6.02;67.28;98969.06;5053250;28;20118;-59
2022/01/02 09:09:11;;;;;;;1.15;1.00;;;;;;;-6.00;67.68;98966.13;5054177;28;20106;-60
2022/01/02 09:11:57;;;;;;;2.22;1.45;;;;;;;-5.86;66.78;98964.78;5054578;28;20259;-60
2022/01/02 09:14:47;;;;;;;3.50;1.85;;;;;;;-5.86;66.65;98951.25;5052689;28;20060;-58
2022/01/02 09:17:32;;;;;;;4.00;1.38;;;;;;;-5.80;66.28;98955.66;5053848;28;20530;-60
2022/01/02 09:20:18;;;;;;;2.72;1.45;;;;;;;-5.76;66.23;98957.63;5054116;28;20057;-58
2022/01/02 09:23:03;;;;;;;1.40;0.90;;;;;;;-5.77;66.24;98955.97;5051881;28;20056;-60
2022/01/02 09:25:49;;;;;;;5.20;1.55;;;;;;;-5.83;66.22;98951.56;5053741;28;20055;-60
2022/01/02 09:28:34;;;;;;;4.50;1.38;;;;;;;-5.90;66.21;98950.88;5053968;28;20111;-57
2022/01/02 09:31:20;;;;;;;4.15;1.73;;;;;;;-5.88;66.22;98948.78;5050923;28;20059;-58
2022/01/02 09:34:07;;;;;;;2.28;1.00;;;;;;;-5.79;66.33;98939.16;5053437;28;20048;-60
2022/01/02 09:36:53;;;;;;;3.67;1.90;;;;;;;-5.84;65.38;98943.69;5053686;28;20121;-59
2022/01/02 09:39:38;;;;;;;5.22;2.00;;;;;;;-5.94;65.87;98949.75;5053931;28;20076;-59
2022/01/02 09:42:29;;;;;;;3.58;1.33;;;;;;;-5.95;65.57;98942.66;5053272;28;20059;-59
2022/01/02 09:45:14;;;;;;;3.53;1.90;;;;;;;-5.92;65.47;98930.56;5054229;28;20130;-59
2022/01/02 09:48:02;;;;;;;2.42;1.63;;;;;;;-5.90;65.86;98934.66;5053373;28;20059;-59
2022/01/02 09:50:47;;;;;;;2.92;1.48;;;;;;;-5.79;65.68;98922.91;5053591;28;20056;-59
2022/01/02 09:53:33;;;;;;;9.73;1.70;;;;;;;-5.90;64.79;98937.34;5053795;28;20532;-59
2022/01/02 09:56:00;;;;;;;2.17;1.38;;;;;;;-5.95;64.81;98937.25;5053823;28;20076;-57
2022/01/02 09:58:27;;;;;;;3.03;1.05;;;;;;;-5.93;64.90;98945.13;5045415;28;20049;-57
2022/01/02 10:00:54;;;;;;;2.22;1.38;;;;;;;-5.90;64.29;98950.88;5053366;28;20045;-56
2022/01/02 10:03:22;;;;;;;7.22;1.52;;;;;;;-5.99;64.51;98941.50;5053864;28;20041;-60
2022/01/02 10:05:53;;;;;;;3.60;1.30;;;;;;;-5.96;64.59;98946.44;5052954;28;20060;-61
2022/01/02 10:08:31;;;;;;;2.05;1.27;;;;;;;-5.95;64.14;98963.53;5051957;28;20530;-55
2022/01/02 10:11:00;;;;;;;3.05;1.50;;;;;;;-5.98;64.76;98953.97;5052683;28;20053;-59
2022/01/02 10:14:04;;;;;;;3.65;1.52;;;;;;;-5.94;64.56;98967.84;5053182;28;20110;-61
2022/01/02 10:16:37;;;;;;;3.45;1.20;;;;;;;-6.01;63.97;98968.00;5022269;28;20057;-59
2022/01/02 10:19:18;;;;;;;0.85;0.82;;;;;;;-6.10;64.13;98979.47;5052815;28;20523;-59
2022/01/02 10:21:53;;;;;;;3.55;1.67;;;;;;;-6.14;64.64;98970.16;5052922;28;20064;-59
2022/01/02 10:24:23;;;;;;;3.05;1.48;;;;;;;-6.15;63.86;98984.75;5052706;28;20049;-60
2022/01/02 10:27:06;;;;;;;4.15;1.92;;;;;;;-6.14;64.21;98964.75;5052968;28;20044;-59
2022/01/02 10:29:45;;;;;;;5.22;1.95;;;;;;;-6.15;64.56;98980.19;5052593;28;20056;-59
2022/01/02 10:32:35;;;;;;;3.47;1.73;;;;;;;-6.07;64.25;98993.31;5052569;28;20083;-59
2022/01/02 10:35:21;;;;;;;3.03;1.47;;;;;;;-6.06;64.64;98980.63;5051347;28;20037;-58
2022/01/02 10:37:53;;;;;;;3.00;1.20;;;;;;;-6.04;65.14;98997.44;5052223;28;20045;-59
2022/01/02 10:40:29;;;;;;;3.67;1.48;;;;;;;-6.09;65.12;98978.38;5053020;28;20178;-60
2022/01/02 10:42:57;;;;;;;5.40;1.70;;;;;;;-6.12;64.96;98986.97;5052654;28;20060;-60
2022/01/02 10:45:47;;;;;;;7.03;2.03;;;;;;;-6.03;65.09;98994.50;5052738;28;20056;-58
2022/01/02 10:48:18;;;;;;;1.90;1.40;;;;;;;-5.97;65.12;98988.13;5049779;28;20423;-57
2022/01/02 10:51:03;;;;;;;;;;;;;;;-6.01;64.47;98989.66;5052234;28;20063;-56
2022/01/02 10:53:31;;;;;;;2.13;1.50;;;;;;;-6.03;64.57;99007.19;5051798;28;19938;-58
2022/01/02 10:55:59;;;;;;;1.88;1.40;;;;;;;-6.09;64.55;98989.22;5051686;28;20043;-57
2022/01/02 10:58:27;;;;;;;2.08;1.20;;;;;;;-6.07;64.68;99009.56;5052401;28;20053;-59
2022/01/02 11:01:00;;;;;;;2.25;1.40;;;;;;;-6.07;64.43;99004.13;5052256;28;20053;-59
2022/01/02 11:03:29;;;;;;;4.63;1.73;;;;;;;-6.11;64.33;99019.22;5052265;28;20515;-60
2022/01/02 11:06:04;;;;;;;3.63;1.98;;;;;;;-6.10;64.97;99010.03;5051736;28;20107;-57
2022/01/02 11:08:34;;;;;;;5.88;2.05;;;;;;;-6.10;64.86;99015.44;5051968;28;20044;-59
2022/01/02 11:11:03;;;;;;;2.03;1.10;;;;;;;-6.12;64.58;98998.66;5052092;28;20135;-57
2022/01/02 11:13:35;;;;;;;2.50;1.42;;;;;;;-6.23;64.49;99001.34;5052201;28;20443;-61
2022/01/02 11:16:03;;;;;;;3.38;1.75;;;;;;;-6.35;65.24;99006.78;5051772;28;20043;-58
2022/01/02 11:18:33;;;;;;;3.30;1.52;;;;;;;-6.56;66.22;98996.59;5051791;28;20045;-59
2022/01/02 11:21:02;;;;;;;3.15;1.55;;;;;;;-6.61;66.47;99012.69;5051242;28;20539;-60
2022/01/02 11:23:53;;;;;;;4.97;1.50;;;;;;;-6.56;66.70;99009.28;5051757;28;20037;-62
2022/01/02 11:26:26;;;;;;;2.30;1.40;;;;;;;-6.50;66.15;99006.47;5051638;28;20049;-62
2022/01/02 11:29:12;;;;;;;2.33;1.48;;;;;;;-6.47;66.63;99002.44;5051247;28;20063;-62
2022/01/02 11:31:43;;;;;;;2.72;1.90;;;;;;;-6.37;66.73;98997.28;5051865;28;20401;-62
2022/01/02 11:34:23;;;;;;;1.90;1.20;;;;;;;-6.32;66.76;98997.38;5051350;28;20506;-67
2022/01/02 11:37:24;;;;;;;4.55;1.30;;;;;;;-6.35;66.45;98995.16;5052155;28;20591;-67
2022/01/02 11:40:02;;;;;;;3.60;1.50;;;;;;;-6.36;65.74;98997.03;5018908;28;20056;-66
2022/01/02 11:42:38;;;;;;;3.03;1.40;;;;;;;-6.28;65.54;98985.84;5050018;28;20059;-67
2022/01/02 11:45:10;;;;;;;2.90;1.20;;;;;;;-6.22;66.09;98982.16;5049734;28;20140;-67
2022/01/02 11:47:47;;;;;;;1.25;1.02;;;;;;;-6.24;65.49;98992.44;5051102;28;20178;-67
2022/01/02 11:50:30;;;;;;;1.58;0.93;;;;;;;-6.20;65.52;98996.31;5051811;28;20052;-66
2022/01/02 11:53:09;;;;;;;3.13;1.63;;;;;;;-6.26;65.19;98994.53;5050976;28;20075;-67
2022/01/02 11:55:39;;;;;;;;;;;;;;;-6.24;64.79;99002.44;5052468;28;20400;-67
2022/01/02 11:58:07;;;;;;;2.13;1.05;;;;;;;-6.18;64.65;99001.47;5051280;28;19933;-67
2022/01/02 12:00:46;;;;;;;5.05;2.08;;;;;;;-6.15;64.53;99001.00;5051948;28;20053;-66
2022/01/02 12:03:50;;;;;;;2.05;1.52;;;;;;;-6.14;64.50;99010.75;5051421;28;20049;-67
2022/01/02 12:06:22;;;;;;;1.88;1.10;;;;;;;-6.18;64.43;99015.84;5055250;28;20407;-67
2022/01/02 12:08:53;;;;;;;5.20;1.70;;;;;;;-6.25;64.29;99017.81;5056003;28;20495;-67
2022/01/02 12:11:38;;;;;;;1.55;1.20;;;;;;;-6.21;64.36;99018.19;5055079;28;20171;-63
2022/01/02 12:14:07;;;;;;;2.75;1.45;;;;;;;-6.26;63.95;99013.50;5055275;28;20045;-64
2022/01/02 12:16:36;;;;;;;3.75;1.42;;;;;;;-6.27;63.71;99024.56;5055241;28;20411;-66
2022/01/02 12:19:03;;;;;;;3.65;1.85;;;;;;;-6.25;64.52;99017.03;5055097;28;20538;-64
2022/01/02 12:21:32;;;;;;;2.95;1.38;;;;;;;-6.22;64.42;99022.75;5054638;28;20053;-60
2022/01/02 12:24:04;;;;;;;2.30;1.55;;;;;;;-6.16;64.73;99031.84;5055434;28;20385;-57
2022/01/02 12:26:35;;;;;;;6.72;1.40;;;;;;;-6.15;64.47;99009.13;5054655;28;20420;-62
2022/01/02 12:29:06;;;;;;;2.83;1.48;;;;;;;-6.15;64.45;99022.66;5055527;28;20059;-59
2022/01/02 12:31:35;;;;;;;1.63;0.85;;;;;;;-6.10;63.98;99020.06;5054172;28;20136;-63
2022/01/02 12:34:07;;;;;;;2.53;1.60;;;;;;;-6.11;64.09;99030.06;5054851;28;20559;-63
2022/01/02 12:36:35;;;;;;;1.67;1.40;;;;;;;-6.11;64.59;99043.59;5054995;28;20398;-63
2022/01/02 12:39:10;;;;;;;2.05;1.45;;;;;;;-6.09;64.12;99049.59;5055567;28;20053;-62
2022/01/02 12:41:40;;;;;;;2.70;1.02;;;;;;;-6.13;64.47;99037.56;5054659;28;20055;-62
2022/01/02 12:44:15;;;;;;;5.53;1.77;;;;;;;-6.21;64.02;99040.66;5054801;28;20522;-64
2022/01/02 12:46:53;;;;;;;3.50;1.35;;;;;;;-6.23;64.28;99050.91;5051044;28;20064;-63
2022/01/02 12:49:42;;;;;;;1.92;1.02;;;;;;;-6.24;64.42;99033.03;5054519;28;20554;-64
2022/01/02 12:52:16;;;;;;;2.55;1.25;;;;;;;-6.27;63.98;99041.63;5054642;28;20411;-64
2022/01/02 12:54:46;;;;;;;2.03;1.25;;;;;;;-6.27;64.89;99043.50;5054372;28;20045;-64
2022/01/02 12:57:15;;;;;;;4.13;1.63;;;;;;;-6.25;64.61;99050.31;5054777;28;20481;-62
2022/01/02 12:59:47;;;;;;;1.98;1.48;;;;;;;-6.25;65.14;99044.09;5054648;28;20143;-63